2018 Stotesbury Cup Regatta

08:00 AM: Race 2a Girls Junior Double Heat Top 6 Places to Finals

Place Bow Crew Net Time % Delta Elapsed Penalty
1 1 Grimsby (H. Mercuri) 06:21.04 06:21.04
2 24 Notre Dame College (N. Hare) 06:25.03 1.0% 00:03.99 06:25.03
3 3 Augustine Classical (L. Hopkins) 06:27.43 1.7% 00:02.40 06:27.43
4 27 Wakefield (L. Kelly) 06:40.57 5.1% 00:13.14 06:40.57
5 29 Grassfield (S. Mazat) 06:40.70 5.2% 00:00.13 06:40.70
6 5 Western Albermarle (C. Allison) 06:42.92 5.7% 00:02.22 06:42.92
7 6 Agnes Irwin (P. Bond) 06:45.68 6.5% 00:02.76 06:45.68
8 10 Conestoga (C. Dudrear) 06:45.90 6.5% 00:00.22 06:45.90
9 11 Penn Charter (G. Mancini) 06:45.95 6.5% 00:00.05 06:45.95
10 16 Holy Angels (E. Maron) 06:47.00 6.8% 00:01.05 06:47.00
11 15 Forest Park (Y. Nam) 06:48.59 7.2% 00:01.59 06:48.59
12 25 Owen J Roberts (S. Ferrizzi) 06:52.18 8.2% 00:03.59 06:52.18
13 7 Baldwin (S. Baron) 06:54.48 8.8% 00:02.30 06:54.48
14 12 Shipley (A. Lawler) 06:54.93 8.9% 00:00.45 06:54.93
15 38 Episcopal PA (L. Rivera) 06:56.15 9.2% 00:01.22 06:56.15
16 30 Hackensack (S. Montany) 06:57.11 9.5% 00:00.96 06:57.11
17 21 Germantown Friends (M. Bigelow) 06:58.31 9.8% 00:01.20 06:58.31
18 23 Upper Merion (G. Myers) 06:59.16 10.0% 00:00.85 06:59.16
19 18 Bishop Ireton (A. Nell) 07:00.09 10.2% 00:00.93 07:00.09
20 4 Sacred Heart (E. Gorski) 07:06.07 11.8% 00:05.98 07:06.07
21 20 Bishop O'Connell (S. Desarzens) 07:09.34 12.7% 00:03.27 07:09.34
22 2 Springside Chestnut Hill (K. Doerzbacher) 07:09.56 12.7% 00:00.22 07:09.56
23 32 Lower Merion (J. Lustig) 07:11.63 13.3% 00:02.07 07:11.63
24 26 Haddon Twp (Q. Johnston) 07:13.06 13.7% 00:01.43 07:13.06
25 13 Shaker (T. Bryan) 07:14.06 13.9% 00:01.00 07:14.06
26 31 Bergen Tech (A. Morosova) 07:17.87 14.9% 00:03.81 07:17.87
27 37 Villa Maria (C. Rose) 07:21.27 15.8% 00:03.40 07:21.27
28 33 Rumson-Fair Haven (C. Winters) 07:25.45 16.9% 00:04.18 07:25.45
29 28 Poughkeepsie (T. Weston) 07:25.55 16.9% 00:00.10 07:25.55
30 17 Belleville (T. Nguyen) 07:27.93 17.6% 00:02.38 07:27.93
31 14 Germantown Academy (A. Gill) 07:31.24 18.4% 00:03.31 07:31.24
32 36 Westfield (A. Buontempo) 07:33.50 19.0% 00:02.26 07:33.50
33 22 Strath Haven (A. Wilson) 07:34.64 19.3% 00:01.14 07:34.64
34 34 Cresskill (C. Kislevitz) 07:41.05 21.0% 00:06.41 07:41.05
35 35 Our Lady of Mercy (D. Dimapilis) 08:15.94 30.2% 00:34.89 08:15.94
36 8 Academy of Notre Dame (A. Reich) Scratch
37 9 Friends Select (L. Nonemaker) Scratch
38 19 Eustace (K. DeWitt) Scratch
Visual Results
Jul 19, 2019 6:36:22 PM EDT